Time;durP1;ratioP1;P1;durP2;ratioP2;P2;SDS_P1;SDS_P2;PMS_P1;PMS_P2;Temp;Humidity;BMP_temperature;BMP_pressure;BME280_temperature;BME280_humidity;BME280_pressure;Samples;Min_cycle;Max_cycle;Signal;HPM_P1;HPM_P2
2022/05/10 00:00:25;;;;;;;24.92;15.75;;;15.80;99.90;;;;;;5036745;28;20393;-67
2022/05/10 00:02:54;;;;;;;21.05;14.88;;;15.80;99.90;;;;;;5036185;28;20021;-67
2022/05/10 00:05:24;;;;;;;24.52;16.38;;;15.70;99.90;;;;;;5036474;28;20035;-67
2022/05/10 00:07:51;;;;;;;21.50;15.48;;;15.70;99.90;;;;;;5053942;28;20109;-67
2022/05/10 00:10:17;;;;;;;21.65;15.60;;;15.70;99.90;;;;;;5053486;28;20064;-67
2022/05/10 00:12:42;;;;;;;23.85;15.98;;;15.70;99.90;;;;;;5035673;28;20025;-67
2022/05/10 00:15:09;;;;;;;22.60;15.65;;;15.70;99.90;;;;;;5053741;28;20497;-67
2022/05/10 00:17:37;;;;;;;25.00;16.83;;;15.60;99.90;;;;;;5053807;28;20033;-67
2022/05/10 00:20:09;;;;;;;22.67;14.98;;;15.60;99.90;;;;;;5054885;28;20028;-67
2022/05/10 00:22:35;;;;;;;24.60;15.25;;;15.60;99.90;;;;;;5053367;28;20036;-67
2022/05/10 00:25:01;;;;;;;21.50;14.80;;;15.50;99.90;;;;;;5053200;28;20632;-67
2022/05/10 00:27:27;;;;;;;22.58;15.02;;;15.50;99.90;;;;;;5052930;28;20029;-67
2022/05/10 00:29:52;;;;;;;21.27;14.38;;;15.50;99.90;;;;;;5057482;22;20041;-67
2022/05/10 00:32:18;;;;;;;24.17;15.23;;;15.50;99.90;;;;;;5051629;28;20055;-66
2022/05/10 00:34:44;;;;;;;20.05;14.15;;;15.50;99.90;;;;;;5050358;28;20409;-67
2022/05/10 00:37:11;;;;;;;22.20;15.65;;;15.40;99.90;;;;;;5050624;28;20021;-67
2022/05/10 00:39:37;;;;;;;25.95;15.98;;;15.40;99.90;;;;;;5051544;28;20032;-67
2022/05/10 00:42:16;;;;;;;27.08;16.20;;;15.40;99.90;;;;;;5051752;28;20420;-67
2022/05/10 00:44:58;;;;;;;;;;;15.40;99.90;;;;;;5052259;28;20032;-67
2022/05/10 00:47:23;;;;;;;22.80;15.15;;;15.40;99.90;;;;;;5051908;28;19918;-67
2022/05/10 00:50:01;;;;;;;24.83;16.52;;;15.40;99.90;;;;;;5051255;28;20100;-67
2022/05/10 00:52:48;;;;;;;23.37;16.63;;;15.40;99.90;;;;;;5051870;28;20025;-66
2022/05/10 00:55:28;;;;;;;23.55;14.95;;;15.30;99.90;;;;;;5033880;28;20658;-67
2022/05/10 00:58:30;;;;;;;21.90;15.60;;;15.40;99.90;;;;;;5033843;28;20029;-67
2022/05/10 01:00:57;;;;;;;21.88;15.18;;;15.30;99.90;;;;;;5051379;28;20465;-66
2022/05/10 01:03:37;;;;;;;22.63;16.10;;;15.40;99.90;;;;;;5051243;28;20025;-67
2022/05/10 01:06:15;;;;;;;22.88;16.10;;;15.40;99.90;;;;;;5051444;28;20025;-66
2022/05/10 01:08:51;;;;;;;24.65;16.70;;;15.30;99.90;;;;;;5051782;28;20029;-67
2022/05/10 01:11:28;;;;;;;24.02;16.73;;;15.30;99.90;;;;;;5051203;28;20021;-67
2022/05/10 01:14:16;;;;;;;22.02;16.65;;;15.20;99.90;;;;;;5051516;28;20489;-67
2022/05/10 01:16:42;;;;;;;22.67;15.95;;;15.20;99.90;;;;;;5033853;28;20409;-67
2022/05/10 01:19:07;;;;;;;24.25;16.85;;;15.10;99.90;;;;;;5033500;28;20021;-67
2022/05/10 01:21:57;;;;;;;24.08;17.40;;;15.00;99.90;;;;;;5033333;28;20116;-67
2022/05/10 01:24:41;;;;;;;22.73;15.77;;;15.00;99.90;;;;;;5033774;28;20070;-67
2022/05/10 01:27:44;;;;;;;24.98;16.45;;;14.90;99.90;;;;;;5051921;28;20029;-67
2022/05/10 01:30:13;;;;;;;24.27;16.27;;;14.90;99.90;;;;;;5051014;28;20028;-67
2022/05/10 01:36:06;;;;;;;26.95;16.60;;;14.90;99.90;;;;;;5051446;28;20504;-67
2022/05/10 01:39:02;;;;;;;25.52;16.88;;;14.90;99.90;;;;;;5050685;28;20067;-67
2022/05/10 01:41:47;;;;;;;22.42;16.00;;;14.90;99.90;;;;;;5051262;28;20474;-67
2022/05/10 01:44:12;;;;;;;22.33;15.30;;;15.00;99.90;;;;;;5051247;28;20029;-67
2022/05/10 01:46:38;;;;;;;23.35;17.33;;;15.00;99.90;;;;;;5051049;28;20044;-67
2022/05/10 01:49:22;;;;;;;21.67;16.13;;;15.00;99.90;;;;;;5051229;28;20036;-67
2022/05/10 01:51:55;;;;;;;21.77;15.80;;;14.90;99.90;;;;;;5051120;28;20111;-67
2022/05/10 01:54:41;;;;;;;22.15;15.95;;;14.80;99.90;;;;;;5051208;28;20025;-67
2022/05/10 01:57:13;;;;;;;22.58;16.40;;;14.90;99.90;;;;;;5019420;28;20064;-67
2022/05/10 01:59:44;;;;;;;22.88;15.13;;;14.80;99.90;;;;;;5032699;28;20027;-67
2022/05/10 02:02:11;;;;;;;28.70;17.13;;;14.80;99.90;;;;;;5051002;28;20017;-67
2022/05/10 02:04:39;;;;;;;23.95;16.90;;;14.90;99.90;;;;;;5051125;28;20025;-66
2022/05/10 02:07:16;;;;;;;23.98;17.23;;;15.00;99.90;;;;;;5051349;28;20032;-66
2022/05/10 02:10:07;;;;;;;22.52;16.35;;;14.90;99.90;;;;;;5050725;28;20081;-66
2022/05/10 02:12:35;;;;;;;24.42;16.40;;;14.90;99.90;;;;;;5050979;28;20036;-66
2022/05/10 02:15:31;;;;;;;23.83;17.58;;;14.90;99.90;;;;;;5032842;28;20480;-67
2022/05/10 02:18:05;;;;;;;22.92;17.10;;;14.80;99.90;;;;;;5046757;28;20033;-67
2022/05/10 02:20:49;;;;;;;24.60;18.00;;;14.80;99.90;;;;;;5033027;28;20440;-67
2022/05/10 02:23:34;;;;;;;22.02;16.42;;;14.70;99.90;;;;;;5052303;28;20485;-66
2022/05/10 02:26:33;;;;;;;23.08;16.67;;;14.70;99.90;;;;;;5054488;28;20021;-66
2022/05/10 02:29:10;;;;;;;27.23;17.35;;;14.70;99.90;;;;;;5054274;28;20165;-66
2022/05/10 02:34:34;;;;;;;24.10;17.67;;;14.60;99.90;;;;;;5054352;28;20020;-67
2022/05/10 02:37:00;;;;;;;23.63;18.00;;;14.50;99.90;;;;;;5036549;28;20408;-67
2022/05/10 02:39:25;;;;;;;23.50;17.25;;;14.50;99.90;;;;;;5054013;28;20021;-68
2022/05/10 02:41:52;;;;;;;23.02;17.63;;;14.50;99.90;;;;;;5054047;28;20029;-66
2022/05/10 02:44:17;;;;;;;25.35;16.92;;;14.50;99.90;;;;;;5053982;28;20025;-66
2022/05/10 02:46:43;;;;;;;23.80;17.67;;;14.50;99.90;;;;;;5054057;28;20063;-67
2022/05/10 02:49:09;;;;;;;24.00;17.73;;;14.40;99.90;;;;;;5035924;28;20091;-67
2022/05/10 02:51:34;;;;;;;23.70;17.50;;;14.50;99.90;;;;;;5053981;28;20104;-67
2022/05/10 02:54:00;;;;;;;23.27;16.92;;;14.40;99.90;;;;;;5053764;28;20098;-67
2022/05/10 02:56:28;;;;;;;22.48;16.48;;;14.40;99.90;;;;;;5053783;28;20095;-67
2022/05/10 02:59:07;;;;;;;24.77;16.58;;;14.40;99.90;;;;;;5035873;28;20024;-67
2022/05/10 03:01:36;;;;;;;24.23;17.33;;;14.40;99.90;;;;;;5053825;28;20017;-66
2022/05/10 03:04:03;;;;;;;25.23;17.67;;;14.30;99.90;;;;;;5035903;28;20033;-67
2022/05/10 03:06:29;;;;;;;23.13;17.13;;;14.30;99.90;;;;;;5053552;28;20021;-67
2022/05/10 03:08:57;;;;;;;22.73;17.00;;;14.30;99.90;;;;;;5053397;28;20108;-66
2022/05/10 03:11:23;;;;;;;23.35;17.30;;;14.30;99.90;;;;;;5053462;28;20021;-67
2022/05/10 03:13:49;;;;;;;22.17;16.90;;;14.20;99.90;;;;;;5053431;28;20040;-66
2022/05/10 03:16:16;;;;;;;23.30;17.70;;;14.20;99.90;;;;;;5053195;28;20024;-67
2022/05/10 03:18:43;;;;;;;22.92;17.48;;;14.20;99.90;;;;;;5053328;28;20029;-67
2022/05/10 03:21:09;;;;;;;23.23;17.80;;;14.20;99.90;;;;;;5053193;28;20017;-66
2022/05/10 03:23:35;;;;;;;25.27;18.13;;;14.10;99.90;;;;;;5053133;28;20051;-66
2022/05/10 03:26:01;;;;;;;22.35;17.13;;;14.20;99.90;;;;;;5053513;28;20077;-67
2022/05/10 03:28:27;;;;;;;23.98;16.73;;;14.20;99.90;;;;;;5054599;28;20029;-69
2022/05/10 03:30:54;;;;;;;25.27;17.73;;;14.20;99.90;;;;;;5035178;28;20029;-68
2022/05/10 03:33:19;;;;;;;27.23;17.38;;;14.30;99.90;;;;;;5052410;28;20031;-68
2022/05/10 03:35:45;;;;;;;25.33;18.33;;;14.30;99.90;;;;;;5052827;28;20032;-68
2022/05/10 03:38:11;;;;;;;23.50;18.05;;;14.20;99.90;;;;;;5034879;28;20022;-68
2022/05/10 03:40:36;;;;;;;25.45;19.17;;;14.20;99.90;;;;;;5034671;28;20424;-67
2022/05/10 03:43:02;;;;;;;23.08;18.48;;;14.20;99.90;;;;;;5052898;28;20038;-68
2022/05/10 03:45:28;;;;;;;25.48;19.33;;;14.20;99.90;;;;;;5053058;28;20029;-68
2022/05/10 03:47:54;;;;;;;24.60;18.35;;;14.30;99.90;;;;;;5052818;28;20420;-66
2022/05/10 03:50:23;;;;;;;24.02;17.77;;;14.30;99.90;;;;;;5034978;28;20053;-67
2022/05/10 03:52:49;;;;;;;23.00;17.90;;;14.30;99.90;;;;;;5052825;28;20021;-67
2022/05/10 03:55:19;;;;;;;21.92;16.73;;;14.30;99.90;;;;;;5034627;28;20372;-67
2022/05/10 03:57:45;;;;;;;22.60;17.00;;;14.30;99.90;;;;;;5053297;28;20035;-67
2022/05/10 04:00:16;;;;;;;21.75;17.25;;;14.30;99.90;;;;;;5052915;28;20388;-68
2022/05/10 04:02:42;;;;;;;25.33;16.35;;;14.40;99.90;;;;;;5052950;28;20493;-68
2022/05/10 04:05:08;;;;;;;21.90;16.88;;;14.40;99.90;;;;;;5052728;28;20078;-67
2022/05/10 04:07:34;;;;;;;23.05;17.45;;;14.40;99.90;;;;;;5052878;28;20103;-67
2022/05/10 04:09:59;;;;;;;22.08;16.85;;;14.50;99.90;;;;;;5052759;28;20106;-68
2022/05/10 04:12:25;;;;;;;22.92;16.45;;;14.50;99.90;;;;;;5052846;28;20051;-68
2022/05/10 04:14:51;;;;;;;23.08;17.23;;;14.60;99.90;;;;;;5052664;28;20086;-66
2022/05/10 04:17:16;;;;;;;22.73;15.98;;;14.70;99.90;;;;;;5052520;28;20057;-67
2022/05/10 04:19:42;;;;;;;25.00;17.08;;;14.70;99.90;;;;;;5052315;28;20083;-68
2022/05/10 04:22:08;;;;;;;21.73;16.30;;;14.70;99.90;;;;;;5052290;28;20083;-67
2022/05/10 04:24:34;;;;;;;22.73;16.58;;;14.80;99.90;;;;;;5034106;28;20032;-68
2022/05/10 04:27:01;;;;;;;22.90;16.90;;;14.80;99.90;;;;;;5052138;28;20029;-67
2022/05/10 04:29:27;;;;;;;20.35;15.50;;;14.80;99.90;;;;;;5052076;28;20025;-67
2022/05/10 04:31:52;;;;;;;24.50;16.98;;;14.90;99.90;;;;;;5052595;28;20099;-67
2022/05/10 04:34:18;;;;;;;21.20;15.60;;;15.10;99.90;;;;;;5052135;28;20060;-69
2022/05/10 04:36:44;;;;;;;22.48;16.45;;;15.10;99.90;;;;;;5034470;28;20017;-68
2022/05/10 04:39:10;;;;;;;22.45;16.75;;;15.10;99.90;;;;;;5052244;28;20430;-68
2022/05/10 04:41:38;;;;;;;23.10;15.73;;;15.20;99.90;;;;;;5052209;28;20044;-66
2022/05/10 04:44:09;;;;;;;21.90;15.87;;;15.20;99.90;;;;;;5034268;28;20032;-67
2022/05/10 04:46:36;;;;;;;22.58;16.23;;;15.20;99.90;;;;;;5051571;28;20279;-68
2022/05/10 04:49:04;;;;;;;26.30;16.83;;;15.20;99.90;;;;;;5051564;28;20032;-67
2022/05/10 04:51:29;;;;;;;22.33;16.00;;;15.30;99.90;;;;;;5034176;28;20032;-67
2022/05/10 04:53:56;;;;;;;22.58;16.20;;;15.30;99.90;;;;;;5052209;28;20477;-67
2022/05/10 04:56:22;;;;;;;23.65;16.10;;;15.30;99.90;;;;;;5051858;28;20393;-68
2022/05/10 04:58:48;;;;;;;21.00;15.68;;;15.30;99.90;;;;;;5033846;28;20036;-68
2022/05/10 05:01:16;;;;;;;22.25;16.20;;;15.30;99.90;;;;;;5033926;28;20028;-68
2022/05/10 05:03:47;;;;;;;21.77;15.38;;;15.40;99.90;;;;;;5051921;28;20516;-68
2022/05/10 05:06:13;;;;;;;21.30;16.00;;;15.40;99.90;;;;;;5033878;28;20033;-67
2022/05/10 05:08:39;;;;;;;22.95;16.17;;;15.40;99.90;;;;;;5051802;28;20031;-66
2022/05/10 05:11:05;;;;;;;23.45;15.80;;;15.40;99.90;;;;;;5051155;28;20025;-67
2022/05/10 05:13:31;;;;;;;22.08;15.48;;;15.30;99.90;;;;;;5050823;28;20028;-67
2022/05/10 05:15:56;;;;;;;22.02;16.40;;;15.40;99.90;;;;;;5051509;28;20028;-68
2022/05/10 05:18:22;;;;;;;25.00;16.17;;;15.30;99.90;;;;;;5051578;28;20071;-67
2022/05/10 05:20:48;;;;;;;21.65;16.33;;;15.30;99.90;;;;;;5051387;28;20025;-65
2022/05/10 05:23:18;;;;;;;23.27;16.02;;;15.30;99.90;;;;;;5051529;28;20440;-66
2022/05/10 05:25:44;;;;;;;23.23;16.52;;;15.30;99.90;;;;;;5051406;28;20481;-68
2022/05/10 05:28:10;;;;;;;23.38;17.05;;;15.30;99.90;;;;;;5033812;28;20021;-66
2022/05/10 05:30:36;;;;;;;24.15;16.67;;;15.20;99.90;;;;;;5050554;28;20037;-66
2022/05/10 05:33:02;;;;;;;21.58;15.95;;;15.20;99.90;;;;;;5051508;28;20040;-66
2022/05/10 05:35:28;;;;;;;23.08;16.38;;;15.20;99.90;;;;;;5033243;28;20116;-65
2022/05/10 05:37:54;;;;;;;23.27;16.90;;;15.20;99.90;;;;;;5051613;28;20385;-68
2022/05/10 05:40:21;;;;;;;22.38;16.35;;;15.30;99.90;;;;;;5051085;28;20025;-67
2022/05/10 05:42:48;;;;;;;25.30;17.27;;;15.30;99.90;;;;;;5051151;28;20030;-66
2022/05/10 05:45:17;;;;;;;23.75;16.30;;;15.30;99.90;;;;;;5051272;28;20040;-65
2022/05/10 05:47:42;;;;;;;;;;;15.40;99.90;;;;;;5052021;28;20032;-65
2022/05/10 05:50:10;;;;;;;21.63;16.17;;;15.40;99.90;;;;;;5050809;28;19904;-64
2022/05/10 05:52:37;;;;;;;22.85;17.00;;;15.50;99.90;;;;;;5051285;28;20119;-66
2022/05/10 05:55:03;;;;;;;22.30;15.98;;;15.60;99.90;;;;;;5051094;28;20539;-67
2022/05/10 05:57:32;;;;;;;23.17;16.48;;;15.70;99.90;;;;;;5053086;28;20025;-67
2022/05/10 06:00:00;;;;;;;22.42;16.00;;;15.80;99.90;;;;;;5054725;28;20021;-66
2022/05/10 06:02:26;;;;;;;22.67;16.05;;;15.90;99.90;;;;;;5055073;28;20025;-66
2022/05/10 06:04:52;;;;;;;21.95;15.77;;;16.10;99.90;;;;;;5054984;28;20029;-66
2022/05/10 06:07:19;;;;;;;19.60;15.00;;;16.20;99.90;;;;;;5055037;28;20036;-65
2022/05/10 06:09:46;;;;;;;23.05;16.33;;;16.30;99.90;;;;;;5054481;28;20524;-67
2022/05/10 06:12:16;;;;;;;23.35;15.38;;;16.40;99.90;;;;;;5054668;28;20115;-68
2022/05/10 06:14:42;;;;;;;24.40;16.25;;;16.60;99.90;;;;;;5036379;28;20032;-67
2022/05/10 06:17:10;;;;;;;23.58;15.73;;;16.70;99.90;;;;;;5054661;28;20029;-67
2022/05/10 06:19:38;;;;;;;21.13;15.47;;;16.80;99.90;;;;;;5054410;28;20535;-68
2022/05/10 06:22:05;;;;;;;21.92;16.42;;;16.90;99.90;;;;;;5054532;28;20017;-67
2022/05/10 06:24:31;;;;;;;22.73;15.95;;;17.10;99.90;;;;;;5054385;28;20086;-68
2022/05/10 06:26:56;;;;;;;20.90;15.40;;;17.10;99.90;;;;;;5054157;28;20021;-65
2022/05/10 06:31:52;;;;;;;19.77;15.07;;;17.30;99.90;;;;;;5064783;28;20060;-67
2022/05/10 06:34:18;;;;;;;23.48;15.57;;;17.40;99.90;;;;;;5045212;28;20397;-66
2022/05/10 06:36:44;;;;;;;22.48;15.80;;;17.40;99.90;;;;;;5074149;28;20029;-67
2022/05/10 06:39:10;;;;;;;23.55;15.48;;;17.30;99.90;;;;;;5041790;28;20507;-69
2022/05/10 06:41:35;;;;;;;23.27;16.50;;;17.40;99.90;;;;;;5053940;28;20056;-65
2022/05/10 06:44:02;;;;;;;22.05;16.02;;;17.60;99.90;;;;;;5053824;28;20021;-63
2022/05/10 06:46:31;;;;;;;23.05;16.55;;;17.70;99.90;;;;;;5054131;28;20090;-63
2022/05/10 06:48:56;;;;;;;22.42;15.63;;;17.70;99.90;;;;;;5053978;28;20029;-62
2022/05/10 06:51:23;;;;;;;23.63;15.77;;;17.80;99.90;;;;;;5054071;28;20081;-62
2022/05/10 06:53:50;;;;;;;25.25;15.68;;;17.80;99.90;;;;;;5053974;28;20020;-62
2022/05/10 06:56:15;;;;;;;22.13;15.98;;;17.90;99.90;;;;;;5053237;28;20025;-63
2022/05/10 06:58:42;;;;;;;21.02;15.85;;;18.00;99.90;;;;;;5053797;28;20496;-63
2022/05/10 07:01:11;;;;;;;24.30;16.45;;;18.10;99.90;;;;;;5053797;28;20497;-63
2022/05/10 07:03:39;;;;;;;21.42;15.63;;;18.20;99.90;;;;;;5053969;28;20029;-61
2022/05/10 07:06:08;;;;;;;21.30;14.85;;;18.30;99.90;;;;;;5052628;28;20075;-63
2022/05/10 07:08:34;;;;;;;24.58;16.17;;;18.40;99.90;;;;;;5050877;28;20118;-62
2022/05/10 07:10:59;;;;;;;24.13;16.05;;;18.60;99.90;;;;;;5050936;28;20442;-63
2022/05/10 07:13:28;;;;;;;22.33;15.32;;;18.80;99.90;;;;;;5053045;28;20477;-64
2022/05/10 07:15:54;;;;;;;21.90;16.58;;;18.80;99.90;;;;;;5052569;28;20048;-64
2022/05/10 07:18:20;;;;;;;23.10;15.65;;;19.00;99.90;;;;;;5052658;28;20060;-64
2022/05/10 07:20:48;;;;;;;21.23;15.82;;;19.10;99.90;;;;;;5052120;28;20047;-64
2022/05/10 07:23:14;;;;;;;23.05;16.40;;;19.20;99.90;;;;;;5053154;28;20100;-63
2022/05/10 07:25:40;;;;;;;21.27;16.48;;;19.20;99.90;;;;;;5053434;28;20025;-64
2022/05/10 07:28:07;;;;;;;20.48;15.65;;;19.30;99.90;;;;;;5054336;28;20025;-63
2022/05/10 07:30:34;;;;;;;24.67;16.02;;;19.30;99.90;;;;;;5047704;28;20029;-63
2022/05/10 07:33:00;;;;;;;22.70;16.63;;;19.30;99.90;;;;;;5033304;28;20040;-64
2022/05/10 07:38:13;;;;;;;23.92;16.40;;;19.50;99.90;;;;;;5033462;28;20043;-64
2022/05/10 07:40:41;;;;;;;24.15;16.88;;;19.60;99.90;;;;;;5031556;28;20025;-64
2022/05/10 07:43:07;;;;;;;23.63;16.47;;;19.60;99.90;;;;;;5031745;28;20472;-64
2022/05/10 07:45:34;;;;;;;23.67;16.98;;;19.80;99.90;;;;;;5032872;28;20029;-62
2022/05/10 07:48:00;;;;;;;21.98;16.40;;;20.00;99.90;;;;;;5032612;28;20025;-64
2022/05/10 07:50:25;;;;;;;20.98;16.30;;;20.10;99.90;;;;;;5032675;28;20040;-63
2022/05/10 07:52:51;;;;;;;22.20;16.60;;;20.00;99.90;;;;;;5032972;28;20032;-63
2022/05/10 07:55:18;;;;;;;22.30;17.02;;;20.00;99.90;;;;;;5032071;28;20135;-64
2022/05/10 07:57:44;;;;;;;27.45;16.63;;;20.10;99.90;;;;;;5032392;28;20378;-63
2022/05/10 08:00:12;;;;;;;26.65;16.55;;;20.20;99.90;;;;;;5031615;28;20029;-63
2022/05/10 08:02:43;;;;;;;23.17;16.52;;;20.20;99.90;;;;;;5032652;28;20389;-62
2022/05/10 08:05:18;;;;;;;25.92;17.95;;;20.20;99.90;;;;;;5040934;28;20033;-64
2022/05/10 08:07:45;;;;;;;26.15;17.42;;;20.20;99.90;;;;;;5051125;28;20056;-64
2022/05/10 08:10:11;;;;;;;25.77;18.27;;;20.30;99.90;;;;;;5051048;28;20036;-63
2022/05/10 08:12:37;;;;;;;22.83;18.23;;;20.30;99.90;;;;;;5051191;28;20539;-63
2022/05/10 08:15:03;;;;;;;22.25;18.27;;;20.40;99.90;;;;;;5052331;28;20021;-63
2022/05/10 08:17:28;;;;;;;23.50;17.73;;;20.50;99.90;;;;;;5051138;28;20027;-63
2022/05/10 08:19:54;;;;;;;23.30;17.48;;;20.70;99.90;;;;;;5050802;28;20025;-64
2022/05/10 08:22:20;;;;;;;22.45;17.75;;;20.90;99.90;;;;;;5050485;28;20021;-63
2022/05/10 08:24:45;;;;;;;25.10;17.60;;;21.00;99.90;;;;;;5052292;28;20045;-66
2022/05/10 08:27:11;;;;;;;23.60;17.60;;;21.10;99.90;;;;;;5051905;28;20025;-64
2022/05/10 08:29:37;;;;;;;24.42;18.58;;;21.30;99.90;;;;;;5051765;28;20025;-61
2022/05/10 08:32:03;;;;;;;21.02;17.30;;;21.60;99.90;;;;;;5042880;28;20493;-64
2022/05/10 08:34:29;;;;;;;23.45;18.02;;;21.80;99.90;;;;;;5032448;28;20171;-63
2022/05/10 08:36:55;;;;;;;26.52;16.92;;;21.90;99.90;;;;;;5031780;28;20529;-63
2022/05/10 08:39:22;;;;;;;24.95;18.13;;;22.20;99.90;;;;;;5031604;28;20339;-62
2022/05/10 08:41:59;;;;;;;23.23;16.40;;;22.40;99.90;;;;;;5032043;28;20033;-62
2022/05/10 08:44:31;;;;;;;21.92;17.80;;;22.50;99.90;;;;;;5031758;28;20102;-62
2022/05/10 08:47:00;;;;;;;21.42;16.65;;;22.40;99.50;;;;;;5032482;28;20029;-60
2022/05/10 08:49:46;;;;;;;22.75;16.30;;;22.30;99.60;;;;;;5031675;28;20029;-63
2022/05/10 08:52:15;;;;;;;21.33;15.95;;;22.40;98.80;;;;;;5031984;28;20508;-62
2022/05/10 08:54:41;;;;;;;;;;;22.40;99.10;;;;;;5032037;28;20025;-62
2022/05/10 08:57:21;;;;;;;21.10;16.00;;;22.50;99.10;;;;;;5030499;28;19959;-62
2022/05/10 09:00:18;;;;;;;21.20;16.35;;;22.70;98.60;;;;;;5031666;28;20025;-61
2022/05/10 09:02:54;;;;;;;21.13;17.45;;;22.90;98.20;;;;;;5031891;28;20100;-63
2022/05/10 09:05:37;;;;;;;26.67;17.85;;;23.00;97.90;;;;;;5032034;28;20500;-63
2022/05/10 09:08:16;;;;;;;20.52;16.02;;;23.30;97.60;;;;;;5030762;28;20025;-64
2022/05/10 09:10:53;;;;;;;20.17;14.60;;;23.10;97.10;;;;;;5030592;28;20021;-61
2022/05/10 09:13:21;;;;;;;19.58;14.32;;;23.20;97.10;;;;;;5031246;28;20485;-63
2022/05/10 09:15:56;;;;;;;20.08;14.23;;;23.20;96.70;;;;;;5031869;28;20033;-62
2022/05/10 09:18:24;;;;;;;20.20;14.30;;;23.20;97.30;;;;;;5032247;28;20028;-62
2022/05/10 09:20:59;;;;;;;20.80;14.10;;;23.10;95.90;;;;;;5031648;28;20021;-64
2022/05/10 09:23:35;;;;;;;19.10;13.93;;;23.00;96.10;;;;;;5032640;28;20508;-64
2022/05/10 09:26:01;;;;;;;21.88;13.70;;;23.10;96.40;;;;;;5031532;28;20071;-64
2022/05/10 09:28:44;;;;;;;19.98;13.98;;;23.20;96.00;;;;;;5032397;28;20048;-64
2022/05/10 09:37:21;;;;;;;19.45;14.68;;;23.70;95.30;;;;;;5036341;28;20044;-65
2022/05/10 09:39:56;;;;;;;20.08;14.60;;;23.80;95.40;;;;;;5036272;28;20335;-62
2022/05/10 09:42:35;;;;;;;18.70;13.38;;;24.10;95.40;;;;;;5038287;28;20083;-65
2022/05/10 09:45:22;;;;;;;19.23;14.07;;;24.20;94.30;;;;;;5036048;28;20032;-65
2022/05/10 09:47:53;;;;;;;19.42;13.60;;;24.30;94.20;;;;;;5035182;28;20029;-62
2022/05/10 09:50:30;;;;;;;18.55;12.75;;;24.60;93.40;;;;;;5036844;28;20397;-62
2022/05/10 09:53:40;;;;;;;23.27;14.10;;;25.10;91.10;;;;;;5035417;28;20432;-61
2022/05/10 09:56:12;;;;;;;20.73;13.00;;;25.20;89.70;;;;;;5033105;28;20332;-64
2022/05/10 09:58:42;;;;;;;20.88;13.50;;;25.20;90.30;;;;;;5035328;28;20108;-63
2022/05/10 10:01:15;;;;;;;18.08;13.55;;;25.40;90.40;;;;;;5035143;28;20029;-63
2022/05/10 10:03:43;;;;;;;18.92;13.13;;;25.50;88.10;;;;;;5035365;28;20032;-63
2022/05/10 10:06:15;;;;;;;19.70;12.55;;;25.40;88.50;;;;;;5035035;28;20108;-63
2022/05/10 10:08:49;;;;;;;21.45;13.27;;;25.60;88.40;;;;;;5035037;28;20026;-63
2022/05/10 10:11:26;;;;;;;18.85;12.95;;;25.50;87.80;;;;;;5035242;28;20099;-63
2022/05/10 10:13:52;;;;;;;23.75;13.50;;;25.70;87.70;;;;;;5034629;28;20036;-61
2022/05/10 10:16:27;;;;;;;18.17;12.70;;;26.00;87.10;;;;;;5034796;28;20033;-65
2022/05/10 10:19:04;;;;;;;20.63;12.95;;;25.50;84.50;;;;;;5034217;28;20378;-62
2022/05/10 10:21:38;;;;;;;17.48;13.10;;;25.40;84.10;;;;;;5035124;28;20072;-65
2022/05/10 10:24:04;;;;;;;19.52;12.90;;;25.40;83.70;;;;;;5034646;28;20025;-61
2022/05/10 10:26:37;;;;;;;19.13;13.55;;;25.30;83.70;;;;;;5034382;28;20043;-61
2022/05/10 10:29:33;;;;;;;21.25;13.52;;;25.20;82.30;;;;;;5034537;28;20036;-62
2022/05/10 10:32:04;;;;;;;19.58;12.90;;;25.30;82.30;;;;;;5028108;28;20041;-61
2022/05/10 10:34:36;;;;;;;17.95;12.55;;;25.60;82.40;;;;;;5032503;28;20112;-64
2022/05/10 10:37:09;;;;;;;19.70;12.88;;;25.70;81.60;;;;;;5034572;28;20044;-63
2022/05/10 10:40:21;;;;;;;18.75;12.77;;;26.00;82.00;;;;;;5034165;28;20022;-63
2022/05/10 10:42:54;;;;;;;16.77;12.38;;;26.00;80.40;;;;;;5033701;28;20079;-61
2022/05/10 10:45:30;;;;;;;19.90;13.10;;;25.90;80.00;;;;;;5033876;28;20033;-62
2022/05/10 10:48:25;;;;;;;17.67;13.05;;;26.00;79.30;;;;;;5034267;28;20029;-62
2022/05/10 10:50:52;;;;;;;20.38;12.73;;;25.90;77.40;;;;;;5034035;28;20033;-62
2022/05/10 10:53:20;;;;;;;17.88;12.63;;;25.40;76.20;;;;;;5032507;28;20025;-63
2022/05/10 10:56:04;;;;;;;18.05;13.00;;;25.30;76.60;;;;;;5032539;28;20033;-62
2022/05/10 10:58:38;;;;;;;19.33;13.38;;;25.10;76.10;;;;;;5032857;28;20026;-63
2022/05/10 11:01:28;;;;;;;19.88;13.00;;;25.30;76.80;;;;;;5033831;28;20028;-63
2022/05/10 11:04:12;;;;;;;20.83;13.63;;;25.40;77.20;;;;;;5034170;28;20028;-63
2022/05/10 11:06:53;;;;;;;19.48;12.90;;;25.60;76.60;;;;;;5033869;28;20104;-63
2022/05/10 11:09:45;;;;;;;19.25;13.60;;;25.40;75.50;;;;;;5032284;28;20033;-64
2022/05/10 11:12:28;;;;;;;19.98;13.15;;;25.40;76.40;;;;;;5032242;28;20059;-61
2022/05/10 11:15:08;;;;;;;21.42;13.20;;;25.60;76.10;;;;;;5033463;28;20030;-63
2022/05/10 11:17:37;;;;;;;19.60;14.07;;;25.70;75.90;;;;;;5033687;28;20079;-63
2022/05/10 11:20:40;;;;;;;20.45;13.55;;;25.60;74.40;;;;;;5033382;28;20024;-62
2022/05/10 11:23:07;;;;;;;21.00;13.15;;;25.40;74.30;;;;;;4991661;28;20112;-63
2022/05/10 11:25:42;;;;;;;19.83;14.35;;;25.30;74.90;;;;;;5025238;28;20113;-63
2022/05/10 11:28:11;;;;;;;18.25;13.98;;;25.30;75.50;;;;;;5032026;28;20036;-63
2022/05/10 11:31:06;;;;;;;22.00;14.15;;;25.30;75.40;;;;;;5033014;28;20095;-62
2022/05/10 11:34:01;;;;;;;19.15;13.55;;;25.30;75.90;;;;;;5033395;28;20037;-63
2022/05/10 11:36:41;;;;;;;22.20;13.63;;;25.40;76.00;;;;;;5033079;28;20042;-63
2022/05/10 11:39:37;;;;;;;19.23;13.45;;;25.20;75.50;;;;;;5033224;28;20033;-63
2022/05/10 11:42:32;;;;;;;17.42;12.85;;;25.10;75.30;;;;;;5031740;28;20049;-61
2022/05/10 11:45:28;;;;;;;21.92;13.55;;;25.00;75.50;;;;;;5031804;28;20026;-62
2022/05/10 11:48:06;;;;;;;16.70;12.48;;;25.00;74.60;;;;;;5033358;28;20034;-63
2022/05/10 11:51:38;;;;;;;17.80;12.98;;;25.10;74.70;;;;;;5032992;28;20389;-62
2022/05/10 11:53:46;;;;;;;18.25;12.75;;;25.30;74.80;;;;;;5032684;28;20027;-63
2022/05/10 11:56:12;;;;;;;19.75;13.07;;;25.40;73.60;;;;;;5032501;28;20385;-62
2022/05/10 11:58:38;;;;;;;19.27;12.77;;;25.50;74.40;;;;;;5031489;28;20029;-62
2022/05/10 12:01:11;;;;;;;17.35;12.80;;;25.80;75.60;;;;;;5032141;28;20088;-61
2022/05/10 12:03:36;;;;;;;19.65;13.27;;;25.90;74.40;;;;;;5031521;28;20490;-65
2022/05/10 12:06:22;;;;;;;18.48;13.20;;;26.10;74.70;;;;;;5032728;28;20031;-66
2022/05/10 12:08:49;;;;;;;20.50;13.40;;;26.00;74.80;;;;;;5025310;28;20069;-65
2022/05/10 12:11:34;;;;;;;19.83;12.93;;;25.70;75.10;;;;;;5032509;28;20033;-67
2022/05/10 12:22:56;;;;;;;21.00;13.60;;;25.90;76.40;;;;;;5032485;28;20052;-66
2022/05/10 12:25:50;;;;;;;16.70;13.15;;;26.20;76.90;;;;;;5032591;28;20053;-67
2022/05/10 12:28:40;;;;;;;18.67;13.70;;;26.50;75.50;;;;;;5030894;28;20556;-66
2022/05/10 12:31:30;;;;;;;19.30;13.82;;;26.00;75.00;;;;;;5048248;22;20448;-65
2022/05/10 12:34:06;;;;;;;21.17;13.32;;;25.80;74.10;;;;;;5030859;28;20021;-65
2022/05/10 12:36:35;;;;;;;17.48;12.45;;;25.70;73.10;;;;;;5031850;28;20025;-65
2022/05/10 12:39:21;;;;;;;18.33;12.27;;;25.90;72.60;;;;;;5031518;28;20072;-65
2022/05/10 12:41:56;;;;;;;18.10;12.60;;;26.10;73.70;;;;;;5027111;28;20066;-66
2022/05/10 12:44:55;;;;;;;17.92;12.63;;;26.40;72.70;;;;;;5051207;28;20025;-65
2022/05/10 12:47:42;;;;;;;17.05;12.48;;;26.10;71.10;;;;;;5043088;28;20040;-66
2022/05/10 12:50:26;;;;;;;17.58;12.60;;;26.20;71.10;;;;;;5011952;28;20034;-67
2022/05/10 12:52:51;;;;;;;19.13;12.45;;;26.40;69.70;;;;;;5011266;28;20429;-64
2022/05/10 12:55:30;;;;;;;18.60;12.18;;;26.40;69.40;;;;;;4667228;28;9999648;-66
2022/05/10 12:58:22;;;;;;;17.90;12.50;;;27.00;70.60;;;;;;5028198;28;20029;-69
2022/05/10 13:00:53;;;;;;;17.17;12.70;;;27.50;68.20;;;;;;5028820;28;20040;-67
2022/05/10 13:03:24;;;;;;;20.80;12.70;;;27.60;67.90;;;;;;5029051;28;20079;-66
2022/05/10 13:05:56;;;;;;;18.00;13.20;;;27.10;68.40;;;;;;5010525;28;20029;-66
2022/05/10 13:08:40;;;;;;;18.23;13.02;;;26.40;69.00;;;;;;5011262;28;20029;-65
2022/05/10 13:11:06;;;;;;;19.02;12.75;;;26.10;70.40;;;;;;5031453;28;20442;-66
2022/05/10 13:13:33;;;;;;;15.77;11.98;;;26.30;70.90;;;;;;5026147;28;20029;-66
2022/05/10 13:16:01;;;;;;;18.10;12.52;;;26.50;69.90;;;;;;5029685;28;20196;-67
2022/05/10 13:18:28;;;;;;;19.50;13.18;;;26.50;70.50;;;;;;5011411;28;20025;-65